Time;durP1;ratioP1;P1;durP2;ratioP2;P2;SDS_P1;SDS_P2;PMS_P1;PMS_P2;Temp;Humidity;BMP_temperature;BMP_pressure;BME280_temperature;BME280_humidity;BME280_pressure;Samples;Min_cycle;Max_cycle;Signal;HPM_P1;HPM_P2
2022/07/17 00:03:54;;;;;;;2.60;1.40;;;;;;;21.58;33.21;100412.16;7766477;32;39160;-72
2022/07/17 00:08:11;;;;;;;3.90;1.23;;;;;;;21.17;34.18;100416.28;7766337;32;39728;-73
2022/07/17 00:12:27;;;;;;;2.10;1.27;;;;;;;21.19;34.43;100420.34;7766115;32;38774;-71
2022/07/17 00:16:43;;;;;;;1.98;1.20;;;;;;;21.16;34.64;100417.41;7766312;32;37090;-72
2022/07/17 00:20:59;;;;;;;6.30;1.37;;;;;;;21.10;35.15;100422.31;7766073;32;39298;-72
2022/07/17 00:25:15;;;;;;;1.67;1.20;;;;;;;20.94;35.66;100429.53;7766085;32;39925;-72
2022/07/17 00:29:32;;;;;;;1.58;1.23;;;;;;;20.65;36.49;100428.19;7764453;32;37712;-72
2022/07/17 00:33:48;;;;;;;4.28;1.50;;;;;;;20.72;36.15;100427.72;7765990;32;36839;-73
2022/07/17 00:38:04;;;;;;;2.97;1.50;;;;;;;20.65;36.39;100438.47;7765983;32;40223;-73
2022/07/17 00:42:20;;;;;;;6.35;1.40;;;;;;;20.78;36.23;100449.41;7765714;32;39751;-73
2022/07/17 00:46:36;;;;;;;2.25;1.42;;;;;;;20.48;37.21;100442.78;7765811;32;37883;-73
2022/07/17 00:50:53;;;;;;;4.70;1.55;;;;;;;20.44;37.37;100459.25;7765773;32;37190;-73
2022/07/17 00:55:11;;;;;;;2.87;1.52;;;;;;;20.14;37.90;100460.13;7765696;32;40059;-73
2022/07/17 00:59:47;;;;;;;5.07;1.37;;;;;;;20.10;37.92;100462.72;7746350;32;40107;-72
2022/07/17 01:04:03;;;;;;;4.00;1.33;;;;;;;20.02;37.52;100466.25;7738593;32;37921;-72
2022/07/17 01:08:20;;;;;;;1.67;1.58;;;;;;;20.02;36.92;100467.09;7739192;32;37475;-73
2022/07/17 01:12:37;;;;;;;2.72;1.50;;;;;;;19.90;36.88;100475.16;7765538;32;39274;-73
2022/07/17 01:16:53;;;;;;;2.87;1.30;;;;;;;19.81;37.12;100474.28;7765400;32;40013;-72
2022/07/17 01:21:09;;;;;;;2.50;1.37;;;;;;;19.84;36.95;100476.44;7763957;32;38643;-72
2022/07/17 01:25:25;;;;;;;6.18;1.30;;;;;;;19.84;36.90;100473.66;7765363;32;37203;-72
2022/07/17 01:29:42;;;;;;;1.70;1.35;;;;;;;19.62;37.40;100469.75;7763783;32;40152;-71
2022/07/17 01:33:58;;;;;;;4.70;1.52;;;;;;;19.56;37.55;100465.50;7765243;32;39967;-72
2022/07/17 01:38:15;;;;;;;1.85;1.20;;;;;;;19.35;38.31;100476.28;7776663;32;37994;-72
2022/07/17 01:42:31;;;;;;;2.25;1.52;;;;;;;19.30;38.58;100479.16;7765272;32;37807;-73
2022/07/17 01:46:47;;;;;;;2.62;1.50;;;;;;;19.43;38.26;100477.44;7765086;32;40096;-71
2022/07/17 01:51:03;;;;;;;1.77;1.42;;;;;;;19.36;39.11;100477.87;7765022;32;39957;-71
2022/07/17 01:55:19;;;;;;;4.05;1.77;;;;;;;19.20;39.70;100482.16;7764020;32;38089;-72
2022/07/17 01:59:37;;;;;;;4.07;2.05;;;;;;;18.87;40.56;100488.72;7764736;32;37103;-72
2022/07/17 02:03:53;;;;;;;2.15;1.62;;;;;;;18.84;40.34;100483.78;7764406;32;38432;-73
2022/07/17 02:08:09;;;;;;;4.93;1.60;;;;;;;18.88;39.64;100486.75;7764812;32;40016;-72
2022/07/17 02:12:26;;;;;;;3.47;1.58;;;;;;;18.82;39.49;100501.78;7764782;32;38111;-72
2022/07/17 02:16:42;;;;;;;3.67;1.55;;;;;;;18.58;39.87;100498.13;7764784;32;37154;-73
2022/07/17 02:20:58;;;;;;;2.03;1.50;;;;;;;18.32;40.27;100505.31;7764689;32;39368;-73
2022/07/17 02:25:14;;;;;;;6.18;1.70;;;;;;;18.54;40.05;100505.41;7764553;32;41280;-73
2022/07/17 02:29:30;;;;;;;2.17;1.25;;;;;;;18.34;40.58;100509.38;7762140;32;39183;-73
2022/07/17 02:33:46;;;;;;;3.87;1.60;;;;;;;18.22;40.56;100517.34;7764019;32;38035;-72
2022/07/17 02:38:02;;;;;;;2.30;1.33;;;;;;;18.01;40.59;100517.75;7764443;32;40210;-72
2022/07/17 02:42:26;;;;;;;3.10;1.37;;;;;;;18.09;40.28;100518.16;7764240;32;39641;-72
2022/07/17 02:46:42;;;;;;;2.00;1.50;;;;;;;17.91;40.93;100522.63;7764187;32;37643;-72
2022/07/17 02:50:58;;;;;;;1.85;1.10;;;;;;;17.71;41.42;100523.75;7764298;32;36775;-72
2022/07/17 02:55:16;;;;;;;4.55;1.40;;;;;;;17.98;41.48;100528.56;7762603;32;39310;-72
2022/07/17 02:59:32;;;;;;;2.58;1.35;;;;;;;17.79;41.63;100525.84;7763989;32;39716;-72
2022/07/17 03:03:48;;;;;;;1.77;1.20;;;;;;;17.79;41.82;100531.34;7763794;32;38372;-72
2022/07/17 03:08:05;;;;;;;5.00;1.40;;;;;;;17.65;42.18;100529.34;7763738;32;37587;-72
2022/07/17 03:12:21;;;;;;;2.97;1.42;;;;;;;17.68;41.98;100536.22;7748822;32;39395;-72
2022/07/17 03:16:37;;;;;;;4.10;1.20;;;;;;;17.50;42.22;100546.16;7737539;32;40204;-72
2022/07/17 03:20:53;;;;;;;1.60;1.42;;;;;;;17.68;41.71;100547.25;7739864;32;38088;-71
2022/07/17 03:25:10;;;;;;;5.00;1.90;;;;;;;17.56;41.94;100552.41;7749374;32;37140;-72
2022/07/17 03:29:26;;;;;;;2.42;1.40;;;;;;;17.52;41.99;100563.19;7765331;32;40022;-71
2022/07/17 03:33:42;;;;;;;2.12;1.27;;;;;;;17.50;42.29;100572.91;7766654;32;40510;-72
2022/07/17 03:37:58;;;;;;;3.20;1.48;;;;;;;17.50;42.30;100572.91;7766677;32;37577;-72
2022/07/17 03:42:14;;;;;;;3.67;1.70;;;;;;;17.62;42.05;100576.00;7766676;32;37043;-72
2022/07/17 03:46:30;;;;;;;2.80;1.50;;;;;;;17.52;42.41;100576.16;7766630;32;39360;-72
2022/07/17 03:50:47;;;;;;;4.10;1.73;;;;;;;17.55;42.46;100576.37;7766599;32;39968;-70
2022/07/17 03:55:03;;;;;;;2.28;1.42;;;;;;;17.33;43.21;100581.69;7764858;32;38090;-72
2022/07/17 03:59:19;;;;;;;1.80;1.58;;;;;;;17.27;43.25;100584.53;7766610;32;37309;-72
2022/07/17 04:03:35;;;;;;;2.87;1.58;;;;;;;17.36;42.98;100586.63;7766372;32;40018;-72
2022/07/17 04:07:52;;;;;;;2.05;1.20;;;;;;;17.51;42.63;100593.84;7764854;32;39896;-73
2022/07/17 04:12:08;;;;;;;3.25;1.70;;;;;;;17.49;42.86;100593.31;7766232;32;37970;-72
2022/07/17 04:16:24;;;;;;;3.20;1.65;;;;;;;17.36;43.38;100605.91;7766278;32;38070;-73
2022/07/17 04:20:40;;;;;;;1.92;1.25;;;;;;;17.41;43.21;100598.38;7766218;32;40142;-72
2022/07/17 04:24:56;;;;;;;6.03;1.33;;;;;;;17.53;42.28;100611.72;7766164;32;39713;-73
2022/07/17 04:29:12;;;;;;;3.25;1.40;;;;;;;17.40;42.91;100606.94;7765438;32;38462;-73
2022/07/17 04:33:30;;;;;;;2.85;1.50;;;;;;;17.55;42.40;100616.94;7764576;32;36974;-72
2022/07/17 04:37:46;;;;;;;2.72;1.20;;;;;;;17.60;42.60;100623.19;7762403;32;39466;-73
2022/07/17 04:42:02;;;;;;;1.83;1.30;;;;;;;17.80;41.98;100624.81;7762944;32;41430;-73
2022/07/17 04:46:18;;;;;;;1.65;1.45;;;;;;;17.85;42.07;100618.41;7764232;32;38734;-73
2022/07/17 04:50:34;;;;;;;1.65;1.50;;;;;;;17.76;42.95;100621.00;7752585;32;36730;-73
2022/07/17 04:54:50;;;;;;;3.92;1.60;;;;;;;17.72;43.66;100630.19;7737204;32;39066;-73
2022/07/17 04:59:06;;;;;;;3.45;1.23;;;;;;;17.81;43.81;100639.41;7737165;32;39739;-74
2022/07/17 05:03:22;;;;;;;1.60;1.50;;;;;;;18.05;43.28;100633.00;7737967;32;38768;-73
2022/07/17 05:07:39;;;;;;;3.28;1.20;;;;;;;17.91;42.75;100644.81;7764080;32;37138;-74
2022/07/17 05:11:55;;;;;;;4.07;1.50;;;;;;;18.33;41.91;100643.00;7752583;32;39398;-79
2022/07/17 05:16:11;;;;;;;2.15;1.33;;;;;;;18.56;42.02;100637.63;7736944;32;40092;-79
2022/07/17 05:20:27;;;;;;;2.30;1.27;;;;;;;18.68;41.59;100635.19;7744898;32;38798;-80
2022/07/17 05:24:43;;;;;;;4.65;1.52;;;;;;;18.84;41.68;100643.19;7762294;32;37239;-79
2022/07/17 05:28:59;;;;;;;5.15;1.40;;;;;;;18.98;41.81;100651.50;7758092;32;156584;-79
2022/07/17 05:33:15;;;;;;;1.95;1.52;;;;;;;19.06;42.06;100648.81;7754048;32;39962;-73
2022/07/17 05:37:31;;;;;;;1.77;1.20;;;;;;;19.19;41.90;100654.66;7765064;32;37239;-73
2022/07/17 05:41:47;;;;;;;3.08;1.35;;;;;;;19.35;41.13;100653.19;7761026;32;37086;-72
2022/07/17 05:46:04;;;;;;;3.40;1.20;;;;;;;19.28;41.24;100655.53;7762168;32;38941;-73
2022/07/17 05:50:20;;;;;;;1.52;1.10;;;;;;;19.43;40.81;100651.63;7762451;32;40534;-73
2022/07/17 05:54:36;;;;;;;3.20;1.40;;;;;;;19.18;41.74;100653.84;7764060;32;37821;-72
2022/07/17 05:58:52;;;;;;;2.65;1.20;;;;;;;19.03;42.51;100668.78;7765240;32;37024;-72
2022/07/17 06:03:08;;;;;;;4.68;1.12;;;;;;;19.02;41.49;100661.59;7765111;32;39038;-72
2022/07/17 06:07:24;;;;;;;1.87;1.15;;;;;;;18.24;41.72;100669.66;7764993;32;39648;-72
2022/07/17 06:11:40;;;;;;;2.15;1.10;;;;;;;18.79;42.05;100668.94;7764926;32;37651;-74
2022/07/17 06:15:58;;;;;;;3.80;0.93;;;;;;;19.58;40.17;100672.62;7764952;32;37072;-73
2022/07/17 06:20:15;;;;;;;0.95;0.85;;;;;;;19.94;37.92;100669.84;7764840;32;40061;-74
2022/07/17 06:24:31;;;;;;;1.23;0.90;;;;;;;19.86;37.85;100674.19;7764820;32;40661;-72
2022/07/17 06:28:47;;;;;;;1.58;1.00;;;;;;;20.44;36.80;100672.47;7764552;32;38123;-73
2022/07/17 06:33:03;;;;;;;2.20;0.90;;;;;;;20.79;36.02;100660.78;7764710;32;37082;-74
2022/07/17 06:37:20;;;;;;;2.72;0.98;;;;;;;20.95;35.02;100661.16;7764654;32;39416;-73
2022/07/17 06:41:36;;;;;;;1.92;1.00;;;;;;;20.81;35.12;100669.59;7764489;32;40593;-74
2022/07/17 06:45:53;;;;;;;1.62;0.98;;;;;;;21.07;33.95;100677.19;7764289;32;38610;-73
2022/07/17 06:50:10;;;;;;;1.12;0.95;;;;;;;21.32;34.31;100682.00;7764031;32;37223;-72
2022/07/17 06:54:26;;;;;;;3.42;1.10;;;;;;;20.81;35.40;100664.03;7764240;32;39273;-73
2022/07/17 06:58:42;;;;;;;5.78;0.98;;;;;;;20.87;35.25;100662.78;7759521;32;40029;-72
2022/07/17 07:02:58;;;;;;;3.50;1.08;;;;;;;20.97;34.95;100668.03;7744576;32;38595;-73
2022/07/17 07:07:14;;;;;;;4.47;1.15;;;;;;;21.63;33.68;100664.44;7754771;32;36966;-72
2022/07/17 07:11:30;;;;;;;4.22;0.80;;;;;;;21.91;32.42;100653.03;7748221;32;39383;-72
2022/07/17 07:15:47;;;;;;;3.42;0.90;;;;;;;22.11;31.82;100655.13;7736649;32;40711;-72
2022/07/17 07:20:08;;;;;;;2.28;0.70;;;;;;;22.72;29.26;100653.38;7736627;32;37901;-72
2022/07/17 07:24:24;;;;;;;3.37;0.73;;;;;;;22.79;27.75;100667.56;7753111;32;37114;-72
2022/07/17 07:28:40;;;;;;;2.25;0.70;;;;;;;23.36;25.91;100669.91;7747936;32;39395;-72
2022/07/17 07:32:56;;;;;;;1.92;0.60;;;;;;;23.57;25.62;100661.56;7744941;32;40876;-76
2022/07/17 07:37:12;;;;;;;3.70;1.10;;;;;;;23.72;25.79;100662.12;7752013;32;37700;-76
2022/07/17 07:41:28;;;;;;;1.15;0.70;;;;;;;23.95;25.23;100666.22;7754183;32;36688;-75
2022/07/17 07:45:45;;;;;;;2.12;0.80;;;;;;;24.44;25.37;100661.97;7761574;32;39396;-79
2022/07/17 07:50:01;;;;;;;2.70;0.70;;;;;;;24.22;25.00;100661.22;7750031;32;39894;-76
2022/07/17 07:54:17;;;;;;;2.47;0.70;;;;;;;24.59;24.62;100669.69;7757825;32;37948;-75
2022/07/17 07:58:34;;;;;;;2.08;0.77;;;;;;;24.91;24.58;100656.84;7735637;32;37727;-75
2022/07/17 08:02:52;;;;;;;3.15;0.70;;;;;;;25.10;24.17;100666.59;7737060;32;38346;-76
2022/07/17 08:07:08;;;;;;;1.58;0.75;;;;;;;25.39;23.12;100665.56;7747628;32;40860;-76
2022/07/17 08:11:24;;;;;;;8.63;0.90;;;;;;;25.23;23.96;100659.03;7765434;32;38559;-75
2022/07/17 08:15:41;;;;;;;6.07;0.90;;;;;;;24.89;23.78;100664.75;7750843;32;37597;-73
2022/07/17 08:19:57;;;;;;;1.55;0.68;;;;;;;25.11;23.16;100665.44;7761605;32;40055;-72
2022/07/17 08:24:13;;;;;;;2.33;1.12;;;;;;;24.81;22.89;100664.84;7739954;32;40788;-72
2022/07/17 08:28:29;;;;;;;1.02;0.52;;;;;;;25.41;23.75;100671.59;7756134;32;36483;-71
2022/07/17 08:32:45;;;;;;;2.70;0.70;;;;;;;25.72;22.98;100664.56;7757926;32;36980;-74
2022/07/17 08:37:01;;;;;;;3.30;0.70;;;;;;;25.69;23.05;100670.84;7751238;32;39287;-71
2022/07/17 08:41:21;;;;;;;4.45;0.80;;;;;;;25.95;22.38;100661.25;7749415;32;40714;-73
2022/07/17 08:45:39;;;;;;;3.62;0.60;;;;;;;26.19;23.08;100663.94;7749890;32;37926;-74
2022/07/17 08:50:02;;;;;;;1.67;0.62;;;;;;;26.22;22.30;100665.22;7751821;32;37220;-73
2022/07/17 08:54:18;;;;;;;1.17;0.70;;;;;;;25.80;22.57;100677.56;7747762;32;39145;-73
2022/07/17 08:58:34;;;;;;;4.43;1.10;;;;;;;25.78;23.44;100656.75;7749400;32;40758;-73
2022/07/17 09:02:56;;;;;;;2.95;0.82;;;;;;;25.26;23.33;100670.34;7739404;32;38151;-71
2022/07/17 09:07:12;;;;;;;1.87;0.85;;;;;;;25.67;22.38;100668.41;7765780;32;36147;-72
2022/07/17 09:11:30;;;;;;;0.85;0.60;;;;;;;26.09;23.27;100656.06;7765574;32;39806;-73
2022/07/17 09:15:47;;;;;;;3.58;0.80;;;;;;;26.10;21.85;100663.28;7751481;32;40044;-74
2022/07/17 09:20:12;;;;;;;0.88;0.75;;;;;;;25.66;23.05;100660.37;7761260;32;38748;-73
2022/07/17 09:24:42;;;;;;;2.25;0.98;;;;;;;26.05;22.46;100660.75;7759325;32;36806;-72
2022/07/17 09:29:00;;;;;;;0.60;0.60;;;;;;;26.18;21.48;100653.09;7744899;32;39157;-73
2022/07/17 09:33:22;;;;;;;1.50;0.70;;;;;;;26.38;21.98;100645.66;7739592;32;40531;-73
2022/07/17 09:37:38;;;;;;;2.85;0.70;;;;;;;26.35;21.28;100646.38;7739523;32;38113;-73
2022/07/17 09:41:54;;;;;;;1.85;0.70;;;;;;;25.80;22.67;100644.06;7764642;32;37255;-72
2022/07/17 09:46:15;;;;;;;2.08;0.62;;;;;;;25.80;21.92;100644.06;7755567;32;39304;-73
2022/07/17 09:50:32;;;;;;;4.32;0.98;;;;;;;25.81;21.65;100642.06;7748753;32;40791;-73
2022/07/17 09:54:50;;;;;;;1.23;0.77;;;;;;;26.30;20.78;100644.69;7749242;32;38535;-74
2022/07/17 09:59:21;;;;;;;3.67;0.68;;;;;;;26.89;20.55;100636.59;7750247;32;37226;-73
2022/07/17 10:03:37;;;;;;;4.78;1.15;;;;;;;26.94;19.81;100634.34;7757029;32;39378;-72
2022/07/17 10:07:53;;;;;;;0.90;0.80;;;;;;;26.12;20.51;100638.59;7762004;32;40049;-73
2022/07/17 10:12:10;;;;;;;1.52;0.70;;;;;;;26.48;19.94;100630.34;7771712;32;38699;-72
2022/07/17 10:16:33;;;;;;;2.70;0.98;;;;;;;26.51;20.23;100632.41;7772288;32;37512;-70
2022/07/17 10:20:50;;;;;;;2.70;0.95;;;;;;;26.71;20.18;100624.97;7745955;32;39215;-74
2022/07/17 10:25:06;;;;;;;2.50;0.98;;;;;;;26.67;19.48;100622.09;7746382;32;40571;-73
2022/07/17 10:29:38;;;;;;;3.33;0.65;;;;;;;27.11;19.28;100615.53;7746820;32;36871;-73
2022/07/17 10:34:04;;;;;;;1.23;0.70;;;;;;;27.30;18.51;100617.59;7743796;32;36748;-72
2022/07/17 10:38:21;;;;;;;4.95;0.60;;;;;;;27.22;18.80;100610.19;7748040;32;39202;-72
2022/07/17 10:42:50;;;;;;;0.98;0.50;;;;;;;27.38;18.90;100612.97;7748156;32;39985;-73
2022/07/17 10:47:08;;;;;;;1.35;0.60;;;;;;;27.83;18.03;100608.72;7745364;32;38000;-74
2022/07/17 10:51:29;;;;;;;2.35;0.73;;;;;;;28.48;17.24;100605.12;7737346;32;37151;-74
2022/07/17 10:55:53;;;;;;;1.67;0.90;;;;;;;28.67;17.05;100597.88;7737174;32;39372;-75
2022/07/17 11:00:11;;;;;;;1.33;0.68;;;;;;;29.36;16.90;100597.72;7737774;32;40745;-75
2022/07/17 11:04:37;;;;;;;1.55;0.70;;;;;;;29.63;16.65;100590.03;7760827;32;37015;-75
2022/07/17 11:09:13;;;;;;;2.40;0.70;;;;;;;29.68;16.55;100588.88;7746373;32;38171;-71
2022/07/17 11:13:29;;;;;;;4.80;0.85;;;;;;;29.51;15.36;100593.06;7745679;32;39264;-74
2022/07/17 11:17:47;;;;;;;1.58;0.90;;;;;;;29.54;16.39;100583.91;7746265;32;39943;-74
2022/07/17 11:22:05;;;;;;;3.50;0.80;;;;;;;29.67;16.08;100570.41;7748917;32;36945;-71
2022/07/17 11:26:23;;;;;;;1.12;0.82;;;;;;;29.25;15.67;100582.72;7749628;32;36468;-74
2022/07/17 11:30:40;;;;;;;2.42;0.70;;;;;;;29.30;16.42;100568.34;7758643;32;39903;-74
2022/07/17 11:34:57;;;;;;;2.83;0.90;;;;;;;29.67;15.45;100571.22;7746279;32;39781;-73
2022/07/17 11:39:46;;;;;;;2.25;0.80;;;;;;;29.51;14.25;100571.44;7747611;32;38291;-74
2022/07/17 11:44:03;;;;;;;2.03;0.80;;;;;;;28.73;15.07;100560.69;7756790;32;37634;-71
2022/07/17 11:48:20;;;;;;;3.67;0.80;;;;;;;29.30;16.31;100554.31;7742429;32;40133;-73
2022/07/17 11:52:50;;;;;;;3.12;0.90;;;;;;;29.91;14.49;100553.06;7739531;32;41236;-74
2022/07/17 11:57:06;;;;;;;1.50;0.70;;;;;;;29.89;15.31;100551.81;7752121;32;37625;-71
2022/07/17 12:01:23;;;;;;;2.65;1.00;;;;;;;30.02;14.55;100546.72;7751357;32;37073;-74
2022/07/17 12:05:39;;;;;;;2.42;0.80;;;;;;;28.71;16.62;100543.44;7751238;32;40079;-73
2022/07/17 12:09:55;;;;;;;1.33;0.70;;;;;;;29.78;13.57;100529.22;7755716;32;38459;-72
2022/07/17 12:14:11;;;;;;;1.33;0.80;;;;;;;28.99;15.15;100531.00;7766148;32;37912;-73
2022/07/17 12:18:29;;;;;;;2.42;0.60;;;;;;;29.00;16.25;100521.41;7740035;32;37149;-73
2022/07/17 12:22:50;;;;;;;2.47;0.93;;;;;;;29.79;14.07;100533.66;7738885;32;39338;-74
2022/07/17 12:27:11;;;;;;;2.55;0.70;;;;;;;30.01;14.17;100517.00;7738092;32;40187;-74
2022/07/17 12:31:27;;;;;;;2.65;0.80;;;;;;;30.44;13.77;100523.00;7736373;32;38024;-73
2022/07/17 12:35:43;;;;;;;2.20;0.77;;;;;;;29.49;14.38;100525.25;7733448;32;37009;-74
2022/07/17 12:39:59;;;;;;;2.90;0.85;;;;;;;28.50;15.82;100524.25;7733649;32;39022;-71
2022/07/17 12:44:15;;;;;;;1.67;0.70;;;;;;;29.82;14.05;100515.19;7733885;32;40452;-74
2022/07/17 12:48:31;;;;;;;2.03;0.75;;;;;;;30.04;13.74;100519.03;7737713;32;37866;-72
2022/07/17 12:52:48;;;;;;;1.70;0.85;;;;;;;30.43;12.67;100515.78;7739124;32;37797;-73
2022/07/17 12:57:04;;;;;;;3.08;0.82;;;;;;;29.63;14.07;100507.75;7738892;32;39171;-74
2022/07/17 13:01:20;;;;;;;2.03;0.82;;;;;;;29.33;15.15;100506.62;7738979;32;39700;-74
2022/07/17 13:05:36;;;;;;;4.00;0.82;;;;;;;29.57;13.95;100505.28;7738791;32;38472;-74
2022/07/17 13:09:52;;;;;;;2.62;0.50;;;;;;;30.82;13.95;100501.16;7738674;32;37038;-73
2022/07/17 13:14:12;;;;;;;1.75;0.75;;;;;;;30.69;12.38;100495.88;7738635;32;39796;-74
2022/07/17 13:18:28;;;;;;;2.92;0.70;;;;;;;30.80;11.96;100509.19;7738728;32;40590;-74
2022/07/17 13:22:44;;;;;;;1.60;0.90;;;;;;;30.42;12.03;100503.72;7738581;32;37972;-75
2022/07/17 13:27:01;;;;;;;4.93;0.88;;;;;;;29.24;13.60;100506.09;7738625;32;37057;-74
2022/07/17 13:31:17;;;;;;;2.15;0.70;;;;;;;29.66;13.59;100495.75;7738467;32;39348;-74
2022/07/17 13:35:33;;;;;;;1.30;0.98;;;;;;;30.84;13.46;100490.34;7738463;32;40798;-74
2022/07/17 13:39:49;;;;;;;2.78;0.90;;;;;;;31.91;11.78;100489.09;7738282;32;38811;-74
2022/07/17 13:44:07;;;;;;;2.40;0.62;;;;;;;31.23;11.06;100478.47;7738494;32;37939;-75
2022/07/17 13:48:23;;;;;;;2.28;0.82;;;;;;;31.15;12.10;100479.62;7738374;32;39272;-73
2022/07/17 13:52:40;;;;;;;2.05;0.50;;;;;;;30.85;11.65;100480.69;7738291;32;40048;-73
2022/07/17 13:56:57;;;;;;;1.35;0.60;;;;;;;30.33;12.29;100473.09;7738039;32;37951;-74
2022/07/17 14:01:13;;;;;;;1.37;0.70;;;;;;;30.04;12.40;100472.03;7737391;32;37337;-76
2022/07/17 14:05:37;;;;;;;0.60;0.60;;;;;;;30.70;12.19;100471.34;7738195;32;39397;-74
2022/07/17 14:09:53;;;;;;;4.00;0.90;;;;;;;30.49;12.06;100474.84;7738095;32;39977;-73
2022/07/17 14:14:09;;;;;;;5.25;0.80;;;;;;;30.14;12.48;100476.94;7738014;32;38676;-74
2022/07/17 14:18:25;;;;;;;3.22;0.60;;;;;;;30.70;12.60;100474.97;7737933;32;37591;-75
2022/07/17 14:22:41;;;;;;;0.60;0.43;;;;;;;31.13;11.65;100467.97;7737890;32;40021;-75
2022/07/17 14:26:57;;;;;;;0.90;0.60;;;;;;;31.79;12.06;100465.75;7737782;32;40220;-75
2022/07/17 14:31:16;;;;;;;3.05;0.70;;;;;;;31.55;11.48;100469.34;7737556;32;38713;-75
2022/07/17 14:35:32;;;;;;;4.72;0.77;;;;;;;31.55;11.38;100466.53;7737530;32;36095;-76
2022/07/17 14:39:48;;;;;;;2.37;0.80;;;;;;;30.59;12.45;100462.84;7737604;32;39366;-76
2022/07/17 14:44:04;;;;;;;1.33;0.80;;;;;;;30.77;12.03;100464.94;7737574;32;40714;-75
2022/07/17 14:48:20;;;;;;;2.05;0.62;;;;;;;31.06;11.58;100471.56;7737484;32;37639;-73
2022/07/17 14:52:37;;;;;;;2.67;0.68;;;;;;;32.03;11.02;100463.38;7737322;32;36800;-75
2022/07/17 14:56:53;;;;;;;2.95;0.82;;;;;;;32.01;11.06;100471.41;7737296;32;40105;-74
2022/07/17 15:01:10;;;;;;;2.53;0.57;;;;;;;31.90;11.31;100464.97;7737140;32;39936;-74
2022/07/17 15:05:26;;;;;;;3.62;0.70;;;;;;;30.47;12.45;100466.78;7754450;32;38691;-74
2022/07/17 15:09:42;;;;;;;1.40;0.90;;;;;;;30.99;13.00;100457.44;7749843;32;37935;-74
2022/07/17 15:13:58;;;;;;;0.77;0.47;;;;;;;31.71;11.31;100455.66;7738065;32;39379;-78
2022/07/17 15:18:14;;;;;;;1.75;0.68;;;;;;;30.74;11.99;100469.38;7751188;32;40121;-75
2022/07/17 15:22:30;;;;;;;1.80;0.50;;;;;;;30.80;12.45;100453.72;7766767;32;37671;-75
2022/07/17 15:26:46;;;;;;;1.67;0.85;;;;;;;30.52;11.80;100460.78;7753888;32;36939;-74
2022/07/17 15:31:03;;;;;;;1.48;0.57;;;;;;;30.50;11.88;100460.37;7747442;32;39219;-72
2022/07/17 15:35:19;;;;;;;2.33;0.93;;;;;;;30.86;11.96;100454.16;7736561;32;40744;-74
2022/07/17 15:39:35;;;;;;;3.28;0.90;;;;;;;30.61;11.94;100443.56;7736675;32;37923;-70
2022/07/17 15:43:52;;;;;;;1.12;0.70;;;;;;;30.27;11.97;100435.28;7755783;32;37928;-72
2022/07/17 15:48:08;;;;;;;0.50;0.50;;;;;;;30.64;12.18;100425.09;7765459;32;39902;-73
2022/07/17 15:52:24;;;;;;;2.28;0.60;;;;;;;30.86;11.98;100442.91;7766467;32;39965;-73
2022/07/17 15:56:40;;;;;;;2.83;0.70;;;;;;;31.43;11.26;100433.87;7765764;32;38036;-74
2022/07/17 16:00:56;;;;;;;3.20;0.70;;;;;;;31.39;11.12;100435.84;7766533;32;37893;-75
2022/07/17 16:05:12;;;;;;;1.33;0.65;;;;;;;31.42;11.40;100424.59;7766453;32;39343;-73
2022/07/17 16:09:28;;;;;;;2.12;0.70;;;;;;;31.63;11.47;100429.50;7740841;32;40073;-73
2022/07/17 16:13:44;;;;;;;1.42;0.47;;;;;;;30.94;11.36;100435.31;7761564;32;38440;-75
2022/07/17 16:18:00;;;;;;;3.47;0.70;;;;;;;31.61;10.95;100425.47;7738248;32;36760;-75
2022/07/17 16:22:16;;;;;;;2.60;0.70;;;;;;;31.57;12.26;100435.94;7737302;32;39155;-74
2022/07/17 16:26:32;;;;;;;1.08;0.50;;;;;;;31.91;11.34;100444.00;7756165;32;40900;-74
2022/07/17 16:30:48;;;;;;;2.35;0.73;;;;;;;31.51;11.86;100441.16;7764786;32;37737;-75
2022/07/17 16:35:05;;;;;;;2.00;0.60;;;;;;;31.79;11.82;100437.56;7765203;32;36986;-74
2022/07/17 16:39:21;;;;;;;1.20;0.50;;;;;;;31.61;11.85;100433.91;7764760;32;39388;-72
2022/07/17 16:43:38;;;;;;;1.90;0.70;;;;;;;31.39;12.15;100441.50;7765777;32;39871;-74
2022/07/17 16:47:54;;;;;;;1.10;0.57;;;;;;;31.52;11.77;100439.16;7764836;32;37702;-74
2022/07/17 16:52:10;;;;;;;5.62;1.05;;;;;;;31.21;12.46;100447.09;7764808;32;37004;-74
2022/07/17 16:56:27;;;;;;;2.55;0.80;;;;;;;31.20;12.09;100435.03;7765409;32;39353;-74
2022/07/17 17:00:48;;;;;;;5.70;1.10;;;;;;;30.56;12.82;100449.56;7762906;32;40822;-75
2022/07/17 17:05:06;;;;;;;2.20;0.70;;;;;;;30.67;12.60;100436.38;7765769;32;38055;-75
2022/07/17 17:09:22;;;;;;;2.45;0.95;;;;;;;30.35;12.95;100441.78;7765751;32;36976;-76
2022/07/17 17:13:39;;;;;;;2.60;0.90;;;;;;;30.61;12.78;100442.75;7764384;32;40254;-76
2022/07/17 17:17:56;;;;;;;2.92;0.60;;;;;;;30.23;13.29;100442.88;7765515;32;40870;-74
2022/07/17 17:22:12;;;;;;;3.58;0.73;;;;;;;30.12;13.87;100450.44;7765434;32;38089;-75
2022/07/17 17:26:28;;;;;;;3.75;0.60;;;;;;;29.53;14.39;100456.69;7765585;32;36741;-75
2022/07/17 17:30:45;;;;;;;4.65;0.70;;;;;;;28.88;14.97;100457.91;7765076;32;40114;-75
2022/07/17 17:35:01;;;;;;;5.87;1.00;;;;;;;29.02;15.03;100452.47;7755079;32;40038;-75
2022/07/17 17:39:17;;;;;;;5.40;1.05;;;;;;;28.84;15.29;100445.84;7738986;32;38138;-75
2022/07/17 17:43:33;;;;;;;3.92;0.80;;;;;;;28.37;15.69;100447.13;7738423;32;37136;-75
2022/07/17 17:47:49;;;;;;;3.33;0.62;;;;;;;28.45;15.94;100451.66;7738378;32;39531;-74
2022/07/17 17:52:05;;;;;;;1.25;0.68;;;;;;;28.01;16.45;100452.97;7738430;32;40765;-74
2022/07/17 17:56:21;;;;;;;5.28;1.00;;;;;;;28.18;16.28;100454.47;7738182;32;38716;-76
2022/07/17 18:00:38;;;;;;;7.07;1.10;;;;;;;28.07;16.28;100459.06;7738196;32;36797;-75
2022/07/17 18:04:54;;;;;;;4.22;1.12;;;;;;;27.76;16.75;100460.91;7757305;32;40182;-75
2022/07/17 18:09:11;;;;;;;1.17;0.70;;;;;;;27.83;16.92;100465.84;7738561;32;40833;-75
2022/07/17 18:13:27;;;;;;;3.72;0.80;;;;;;;27.61;17.01;100468.22;7738596;32;37904;-75
2022/07/17 18:17:44;;;;;;;1.00;0.62;;;;;;;27.41;17.05;100466.66;7737830;32;37288;-73
2022/07/17 18:22:03;;;;;;;1.90;0.82;;;;;;;27.06;17.71;100479.53;7754722;32;40205;-74
2022/07/17 18:26:19;;;;;;;1.75;0.68;;;;;;;26.85;17.80;100479.84;7761516;32;40686;-74
2022/07/17 18:30:37;;;;;;;1.80;0.62;;;;;;;26.90;17.31;100484.37;7764421;32;38151;-74
2022/07/17 18:34:53;;;;;;;2.70;0.73;;;;;;;26.52;17.87;100489.47;7764634;32;37920;-73
2022/07/17 18:39:11;;;;;;;1.92;0.65;;;;;;;26.23;18.59;100491.59;7764618;32;39285;-72
2022/07/17 18:43:27;;;;;;;3.20;0.80;;;;;;;26.16;18.32;100496.97;7764491;32;39913;-73
2022/07/17 18:47:43;;;;;;;3.17;0.80;;;;;;;26.04;18.22;100502.66;7763928;32;38077;-73
2022/07/17 18:51:59;;;;;;;3.75;0.85;;;;;;;25.73;19.75;100504.22;7762897;32;37107;-73
2022/07/17 18:56:15;;;;;;;2.50;0.75;;;;;;;25.67;19.60;100519.63;7764049;32;39971;-72
2022/07/17 19:00:32;;;;;;;4.07;0.93;;;;;;;25.49;20.52;100528.31;7751955;32;39849;-74
2022/07/17 19:04:48;;;;;;;2.00;0.80;;;;;;;25.34;21.11;100531.06;7736859;32;39167;-75
2022/07/17 19:09:05;;;;;;;2.00;0.68;;;;;;;25.02;21.58;100537.25;7737002;32;36832;-74
2022/07/17 19:13:21;;;;;;;2.45;0.82;;;;;;;25.01;21.58;100544.00;7761675;32;39364;-75
2022/07/17 19:17:37;;;;;;;3.00;1.05;;;;;;;24.86;21.87;100544.72;7751948;32;38549;-74
2022/07/17 19:21:53;;;;;;;1.85;1.02;;;;;;;24.73;21.85;100547.53;7746710;32;38725;-76
2022/07/17 19:26:09;;;;;;;3.47;0.90;;;;;;;24.76;22.02;100559.13;7751811;32;37018;-74
2022/07/17 19:30:25;;;;;;;6.78;1.33;;;;;;;24.65;22.33;100564.38;7763164;32;40041;-75
2022/07/17 19:34:42;;;;;;;2.75;1.00;;;;;;;24.43;23.01;100571.19;7742368;32;39944;-76
2022/07/17 19:38:58;;;;;;;4.72;1.05;;;;;;;24.25;23.50;100579.75;7736054;32;38963;-76
2022/07/17 19:43:15;;;;;;;5.97;1.40;;;;;;;24.27;22.54;100580.22;7736371;32;37398;-76
2022/07/17 19:47:34;;;;;;;11.65;1.40;;;;;;;24.23;23.57;100584.03;7736173;32;39292;-76
2022/07/17 19:51:50;;;;;;;4.95;0.85;;;;;;;24.10;23.54;100574.84;7746100;32;39954;-77
2022/07/17 19:56:12;;;;;;;6.07;0.98;;;;;;;24.05;23.29;100578.66;7743261;32;37952;-76